createdAt,value
2023-07-08T00:00:07.198Z,75.92
2023-07-08T00:01:07.189Z,75.92
2023-07-08T00:02:07.259Z,76.12
2023-07-08T00:03:07.211Z,76.06
2023-07-08T00:04:07.222Z,76.12
2023-07-08T00:05:07.147Z,75.55
2023-07-08T00:06:07.144Z,75.76
2023-07-08T00:07:07.138Z,76.67
2023-07-08T00:08:07.123Z,76.43
2023-07-08T00:09:07.160Z,76.26
2023-07-08T00:10:08.116Z,76.36
2023-07-08T00:11:07.104Z,76.26
2023-07-08T00:12:07.107Z,76.77
2023-07-08T00:13:07.083Z,77.01
2023-07-08T00:14:07.172Z,77.01
2023-07-08T00:15:07.076Z,76.97
2023-07-08T00:16:07.127Z,76.97
2023-07-08T00:17:07.070Z,77.11
2023-07-08T00:18:07.095Z,76.97
2023-07-08T00:19:57.204Z,77.01
2023-07-08T00:20:57.219Z,77.51
2023-07-08T00:21:57.202Z,77.21
2023-07-08T00:22:57.185Z,77.51
2023-07-08T00:23:58.286Z,77.21
2023-07-08T00:24:58.271Z,77.21
2023-07-08T00:25:58.284Z,77.31
2023-07-08T00:26:58.253Z,77.72
2023-07-08T00:27:58.248Z,77.01
2023-07-08T00:28:58.229Z,77.01
2023-07-08T00:29:58.236Z,77.01
2023-07-08T00:30:58.498Z,77.07
2023-07-08T00:31:58.229Z,77.01
2023-07-08T00:32:58.289Z,77.72
2023-07-08T00:33:58.651Z,77.72
2023-07-08T00:34:58.194Z,77.72
2023-07-08T00:35:58.186Z,77.21
2023-07-08T00:36:58.181Z,77.92
2023-07-08T00:37:58.169Z,77.21
2023-07-08T00:38:58.189Z,77.41
2023-07-08T00:39:58.184Z,77.45
2023-07-08T00:40:58.274Z,77.41
2023-07-08T00:41:58.193Z,77.41
2023-07-08T00:42:58.127Z,77.41
2023-07-08T00:43:58.231Z,77.45
2023-07-08T00:44:58.462Z,77.25
2023-07-08T00:46:03.058Z,77.45
2023-07-08T00:47:11.033Z,77.31
2023-07-08T00:47:58.176Z,77.45
2023-07-08T00:48:58.078Z,77.45
2023-07-08T00:49:58.090Z,77.45
2023-07-08T00:50:58.280Z,77.86
2023-07-08T00:51:58.049Z,77.86
2023-07-08T00:52:58.121Z,77.55
2023-07-08T00:53:58.038Z,77.65
2023-07-08T00:54:59.026Z,77.55
2023-07-08T00:55:58.026Z,78.09
2023-07-08T00:56:58.011Z,77.95
2023-07-08T00:57:58.005Z,78.09
2023-07-08T00:58:58.038Z,78.40
2023-07-08T00:59:58.004Z,78.40
2023-07-08T01:00:58.214Z,78.40
2023-07-08T01:01:58.012Z,78.70
2023-07-08T01:02:58.052Z,78.30
2023-07-08T01:03:58.012Z,78.40
2023-07-08T01:04:57.959Z,78.70
2023-07-08T01:05:57.928Z,78.80
2023-07-08T01:06:57.937Z,78.70
2023-07-08T01:07:57.939Z,79.25
2023-07-08T01:08:57.919Z,79.35
2023-07-08T01:09:57.919Z,79.41
2023-07-08T01:11:00.082Z,79.35
2023-07-08T01:11:57.903Z,79.45
2023-07-08T01:12:57.869Z,79.75
2023-07-08T01:13:57.896Z,79.75
2023-07-08T01:14:57.876Z,79.65
2023-07-08T01:15:57.888Z,79.85
2023-07-08T01:16:58.618Z,79.96
2023-07-08T01:17:57.915Z,80.06
2023-07-08T01:18:57.856Z,80.06
2023-07-08T01:19:57.832Z,80.06
2023-07-08T01:20:57.918Z,80.16
2023-07-08T01:21:57.871Z,80.19
2023-07-08T01:22:57.802Z,80.10
2023-07-08T01:23:57.816Z,80.30
2023-07-08T01:24:57.808Z,80.50
2023-07-08T01:25:57.788Z,80.60
2023-07-08T01:26:57.803Z,80.60
2023-07-08T01:27:57.773Z,80.60
2023-07-08T01:28:57.757Z,80.60
2023-07-08T01:29:57.764Z,80.60
2023-07-08T01:30:57.867Z,80.60
2023-07-08T01:31:57.777Z,80.80
2023-07-08T01:32:57.768Z,80.60
2023-07-08T01:33:57.719Z,80.71
2023-07-08T01:34:57.704Z,81.25
2023-07-08T01:35:57.726Z,80.94
2023-07-08T01:36:57.689Z,80.84
2023-07-08T01:37:57.687Z,80.94
2023-07-08T01:38:57.680Z,80.84
2023-07-08T01:39:57.672Z,80.94
2023-07-08T01:40:57.827Z,80.84
2023-07-08T01:41:57.657Z,80.54
2023-07-08T01:42:57.649Z,81.05
2023-07-08T01:43:57.650Z,81.15
2023-07-08T01:44:57.628Z,80.84
2023-07-08T01:45:57.634Z,80.84
2023-07-08T01:46:57.608Z,80.94
2023-07-08T01:47:57.670Z,81.05
2023-07-08T01:48:57.601Z,81.05
2023-07-08T01:49:57.586Z,81.15
2023-07-08T01:50:59.711Z,81.15
2023-07-08T01:51:57.578Z,81.15
2023-07-08T01:52:57.566Z,81.35
2023-07-08T01:53:57.550Z,81.25
2023-07-08T01:54:57.556Z,81.35
2023-07-08T01:55:57.545Z,81.45
2023-07-08T01:56:57.572Z,81.59
2023-07-08T01:57:57.506Z,82.00
2023-07-08T01:58:57.516Z,82.10
2023-07-08T01:59:57.502Z,82.51
2023-07-08T02:00:57.731Z,82.40
2023-07-08T02:01:57.764Z,82.85
2023-07-08T02:02:57.585Z,82.40
2023-07-08T02:03:57.478Z,82.61
2023-07-08T02:04:57.472Z,82.54
2023-07-08T02:05:57.567Z,82.81
2023-07-08T02:06:57.469Z,82.61
2023-07-08T02:07:57.455Z,83.12
2023-07-08T02:08:57.445Z,82.75
2023-07-08T02:09:57.428Z,82.95
2023-07-08T02:10:57.777Z,82.81
2023-07-08T02:11:57.421Z,82.85
2023-07-08T02:12:57.399Z,82.85
2023-07-08T02:13:57.428Z,83.36
2023-07-08T02:14:57.415Z,83.06
2023-07-08T02:15:57.387Z,82.85
2023-07-08T02:16:57.371Z,82.85
2023-07-08T02:17:57.399Z,82.85
2023-07-08T02:18:57.342Z,82.95
2023-07-08T02:19:57.353Z,82.95
2023-07-08T02:20:57.542Z,82.95
2023-07-08T02:21:57.326Z,82.75
2023-07-08T02:22:57.325Z,82.75
2023-07-08T02:23:57.329Z,82.81
2023-07-08T02:24:57.302Z,82.92
2023-07-08T02:25:57.334Z,82.75
2023-07-08T02:26:57.331Z,82.95
2023-07-08T02:27:57.278Z,82.65
2023-07-08T02:28:57.268Z,82.85
2023-07-08T02:29:57.260Z,83.06
2023-07-08T02:30:57.328Z,83.60
2023-07-08T02:31:57.280Z,83.60
2023-07-08T02:32:57.296Z,83.50
2023-07-08T02:33:57.256Z,84.11
2023-07-08T02:34:57.223Z,83.81
2023-07-08T02:35:58.224Z,84.31
2023-07-08T02:36:57.223Z,83.95
2023-07-08T02:37:57.216Z,83.81
2023-07-08T02:38:57.205Z,84.66
2023-07-08T02:39:57.189Z,83.91
2023-07-08T02:40:57.353Z,83.74
2023-07-08T02:41:57.166Z,84.62
2023-07-08T02:42:57.257Z,84.56
2023-07-08T02:43:57.137Z,84.66
2023-07-08T02:44:57.143Z,84.82
2023-07-08T02:45:57.150Z,84.76
2023-07-08T02:46:58.097Z,85.06
2023-07-08T02:47:57.166Z,85.06
2023-07-08T02:48:57.143Z,85.06
2023-07-08T02:49:57.110Z,84.86
2023-07-08T02:50:57.405Z,85.17
2023-07-08T02:51:57.705Z,85.17
2023-07-08T02:52:57.081Z,84.82
2023-07-08T02:53:57.074Z,84.76
2023-07-08T02:54:57.070Z,85.06
2023-07-08T02:55:57.057Z,85.06
2023-07-08T02:56:57.064Z,84.86
2023-07-08T02:57:57.036Z,84.97
2023-07-08T02:58:57.043Z,84.97
2023-07-08T02:59:57.040Z,84.15
2023-07-08T03:00:57.102Z,85.06
2023-07-08T03:01:57.021Z,85.11
2023-07-08T03:02:57.094Z,85.11
2023-07-08T03:03:57.114Z,85.31
2023-07-08T03:04:56.992Z,85.21
2023-07-08T03:05:56.982Z,85.21
2023-07-08T03:06:56.964Z,85.17
2023-07-08T03:07:56.979Z,85.51
2023-07-08T03:08:56.969Z,84.97
2023-07-08T03:09:56.971Z,85.31
2023-07-08T03:10:57.053Z,85.27
2023-07-08T03:11:56.927Z,85.31
2023-07-08T03:12:56.928Z,85.21
2023-07-08T03:13:57.026Z,85.41
2023-07-08T03:14:56.913Z,85.17
2023-07-08T03:15:56.912Z,85.21
2023-07-08T03:16:56.950Z,85.47
2023-07-08T03:17:56.904Z,85.27
2023-07-08T03:18:56.886Z,84.25
2023-07-08T03:19:56.896Z,84.97
2023-07-08T03:20:57.030Z,85.17
2023-07-08T03:21:56.866Z,85.06
2023-07-08T03:22:56.861Z,84.97
2023-07-08T03:23:56.851Z,84.86
2023-07-08T03:24:56.831Z,84.25
2023-07-08T03:25:56.852Z,84.05
2023-07-08T03:26:56.816Z,84.42
2023-07-08T03:27:56.798Z,84.11
2023-07-08T03:28:56.799Z,83.91
2023-07-08T03:29:56.796Z,83.40
2023-07-08T03:30:56.814Z,84.01
2023-07-08T03:31:56.764Z,83.87
2023-07-08T03:32:56.812Z,83.15
2023-07-08T03:33:56.759Z,83.15
2023-07-08T03:34:56.753Z,83.06
2023-07-08T03:35:56.745Z,83.26
2023-07-08T03:36:56.744Z,82.85
2023-07-08T03:37:56.726Z,82.65
2023-07-08T03:38:56.771Z,82.75
2023-07-08T03:39:56.725Z,82.51
2023-07-08T03:40:56.781Z,82.45
2023-07-08T03:41:56.701Z,82.24
2023-07-08T03:42:56.683Z,82.10
2023-07-08T03:43:56.688Z,81.90
2023-07-08T03:44:56.683Z,81.76
2023-07-08T03:45:56.683Z,81.01
2023-07-08T03:46:56.727Z,80.46
2023-07-08T03:47:56.743Z,79.14
2023-07-08T03:48:56.675Z,78.06
2023-07-08T03:49:56.659Z,77.72
2023-07-08T03:50:56.640Z,76.26
2023-07-08T03:51:56.622Z,75.96
2023-07-08T03:52:56.652Z,74.60
2023-07-08T03:53:56.620Z,74.57
2023-07-08T03:54:56.595Z,74.03
2023-07-08T03:55:56.604Z,72.92
2023-07-08T03:56:56.610Z,72.99
2023-07-08T03:57:56.601Z,71.94
2023-07-08T03:58:56.601Z,71.64
2023-07-08T03:59:56.560Z,71.06
2023-07-08T04:00:56.582Z,69.75
2023-07-08T04:01:56.621Z,69.92
2023-07-08T04:02:56.587Z,69.18
2023-07-08T04:03:56.600Z,69.18
2023-07-08T04:04:56.519Z,68.34
2023-07-08T04:05:56.520Z,68.14
2023-07-08T04:06:56.522Z,68.27
2023-07-08T04:07:56.514Z,68.44
2023-07-08T04:08:56.488Z,67.50
2023-07-08T04:09:56.491Z,67.17
2023-07-08T04:10:56.466Z,65.50
2023-07-08T04:11:56.460Z,64.76
2023-07-08T04:12:56.469Z,63.12
2023-07-08T04:13:56.524Z,62.39
2023-07-08T04:14:56.458Z,62.08
2023-07-08T04:15:56.440Z,61.99
2023-07-08T04:16:56.538Z,62.36
2023-07-08T04:17:56.432Z,62.13
2023-07-08T04:18:56.411Z,60.69
2023-07-08T04:19:56.405Z,60.39
2023-07-08T04:21:57.389Z,59.19
2023-07-08T04:22:56.427Z,59.26
2023-07-08T04:23:56.377Z,59.56
2023-07-08T04:24:56.383Z,59.26
2023-07-08T04:25:56.367Z,59.56
2023-07-08T04:26:56.348Z,59.59
2023-07-08T04:27:56.360Z,59.46
2023-07-08T04:28:56.406Z,58.70
2023-07-08T04:29:56.351Z,57.87
2023-07-08T04:30:56.370Z,57.65
2023-07-08T04:31:56.320Z,57.02
2023-07-08T04:32:56.363Z,55.79
2023-07-08T04:33:56.304Z,55.59
2023-07-08T04:34:56.298Z,55.82
2023-07-08T04:35:56.302Z,56.95
2023-07-08T04:36:56.310Z,57.05
2023-07-08T04:37:56.261Z,56.65
2023-07-08T04:38:56.282Z,56.82
2023-07-08T04:39:56.284Z,55.89
2023-07-08T04:40:56.253Z,54.64
2023-07-08T04:41:56.238Z,54.54
2023-07-08T04:42:56.250Z,53.52
2023-07-08T04:43:56.224Z,52.87
2023-07-08T04:44:56.208Z,52.74
2023-07-08T04:45:56.218Z,52.14
2023-07-08T04:46:56.237Z,51.45
2023-07-08T04:47:56.202Z,51.52
2023-07-08T04:48:56.181Z,51.22
2023-07-08T04:49:56.183Z,51.20
2023-07-08T04:50:56.200Z,51.27
2023-07-08T04:51:56.174Z,50.05
2023-07-08T04:52:56.184Z,50.52
2023-07-08T04:53:56.193Z,49.08
2023-07-08T04:54:56.748Z,48.19
2023-07-08T04:55:56.279Z,47.55
2023-07-08T04:56:56.129Z,47.73
2023-07-08T04:57:56.142Z,46.30
2023-07-08T04:58:56.115Z,45.45
2023-07-08T04:59:56.130Z,44.94
2023-07-08T05:00:56.126Z,45.45
2023-07-08T05:01:56.140Z,45.38
2023-07-08T05:02:56.113Z,46.76
2023-07-08T05:03:56.114Z,47.35
2023-07-08T05:04:56.077Z,48.10
2023-07-08T05:05:56.069Z,48.39
2023-07-08T05:06:56.087Z,47.85
2023-07-08T05:07:56.049Z,46.83
2023-07-08T05:08:56.048Z,46.61
2023-07-08T05:09:56.035Z,46.07
2023-07-08T05:10:56.779Z,43.83
2023-07-08T05:11:56.020Z,43.61
2023-07-08T05:12:56.046Z,43.51
2023-07-08T05:13:56.062Z,43.91
2023-07-08T05:14:56.011Z,43.39
2023-07-08T05:15:56.019Z,43.07
2023-07-08T05:16:55.988Z,42.99
2023-07-08T05:17:56.011Z,43.49
2023-07-08T05:18:55.961Z,43.17
2023-07-08T05:19:55.964Z,42.85
2023-07-08T05:20:55.982Z,41.67
2023-07-08T05:21:55.969Z,42.38
2023-07-08T05:22:55.961Z,43.12
2023-07-08T05:23:55.950Z,43.19
2023-07-08T05:24:55.920Z,42.62
2023-07-08T05:25:55.944Z,42.68
2023-07-08T05:26:55.922Z,42.58
2023-07-08T05:27:55.931Z,42.07
2023-07-08T05:28:55.898Z,41.83
2023-07-08T05:29:55.893Z,41.95
2023-07-08T05:30:55.880Z,40.64
2023-07-08T05:31:55.898Z,41.22
2023-07-08T05:32:55.958Z,40.09
2023-07-08T05:33:55.874Z,39.87
2023-07-08T05:34:55.875Z,40.43
2023-07-08T05:35:55.859Z,38.62
2023-07-08T05:36:55.847Z,37.99
2023-07-08T05:37:55.864Z,37.78
2023-07-08T05:38:55.829Z,37.27
2023-07-08T05:39:55.825Z,37.35
2023-07-08T05:40:56.856Z,37.25
2023-07-08T05:41:55.813Z,36.74
2023-07-08T05:42:55.810Z,37.04
2023-07-08T05:43:55.813Z,36.86
2023-07-08T05:44:55.796Z,36.45
2023-07-08T05:46:10.606Z,36.22
2023-07-08T05:46:57.914Z,35.81
2023-07-08T05:47:55.794Z,35.40
2023-07-08T05:48:55.764Z,35.21
2023-07-08T05:49:55.762Z,34.19
2023-07-08T05:50:55.766Z,34.47
2023-07-08T05:51:55.757Z,33.09
2023-07-08T05:52:55.745Z,33.48
2023-07-08T05:53:55.754Z,32.89
2023-07-08T05:54:55.721Z,33.36
2023-07-08T05:55:55.722Z,33.07
2023-07-08T05:56:55.724Z,33.36
2023-07-08T05:57:55.703Z,33.26
2023-07-08T05:58:55.764Z,32.97
2023-07-08T05:59:55.716Z,32.97
2023-07-08T06:00:55.767Z,32.67
2023-07-08T06:01:55.915Z,32.75
2023-07-08T06:02:55.716Z,31.87
2023-07-08T06:03:55.747Z,31.66
2023-07-08T06:04:55.661Z,31.85
2023-07-08T06:05:56.178Z,32.15
2023-07-08T06:06:55.662Z,32.53
2023-07-08T06:07:55.672Z,32.34
2023-07-08T06:08:55.652Z,32.75
2023-07-08T06:09:55.638Z,32.68
2023-07-08T06:10:57.257Z,31.79
2023-07-08T06:11:55.762Z,32.19
2023-07-08T06:12:55.624Z,32.71
2023-07-08T06:13:55.645Z,32.62
2023-07-08T06:14:55.605Z,33.30
2023-07-08T06:15:55.637Z,33.22
2023-07-08T06:16:55.646Z,34.38
2023-07-08T06:17:55.627Z,33.89
2023-07-08T06:18:55.565Z,34.03
2023-07-08T06:19:55.566Z,35.68
2023-07-08T06:20:55.563Z,37.21
2023-07-08T06:22:05.057Z,37.98
2023-07-08T06:22:56.573Z,36.96
2023-07-08T06:23:55.558Z,36.32
2023-07-08T06:24:55.558Z,35.71
2023-07-08T06:25:56.557Z,35.09
2023-07-08T06:27:57.205Z,34.65
2023-07-08T06:28:56.193Z,35.14
2023-07-08T06:29:55.511Z,35.45
2023-07-08T06:30:55.504Z,36.84
2023-07-08T06:31:55.619Z,36.88
2023-07-08T06:32:55.679Z,37.98
2023-07-08T06:33:55.477Z,37.80
2023-07-08T06:34:55.497Z,38.62
2023-07-08T06:35:55.486Z,39.32
2023-07-08T06:36:55.483Z,39.62
2023-07-08T06:37:55.458Z,39.13
2023-07-08T06:38:55.464Z,39.32
2023-07-08T06:39:55.439Z,38.23
2023-07-08T06:40:55.446Z,39.31
2023-07-08T06:41:55.431Z,38.92
2023-07-08T06:42:55.431Z,39.31
2023-07-08T06:43:55.427Z,38.11
2023-07-08T06:44:55.426Z,37.68
2023-07-08T06:45:55.427Z,37.19
2023-07-08T06:46:55.392Z,38.40
2023-07-08T06:47:55.438Z,37.99
2023-07-08T06:48:55.375Z,37.56
2023-07-08T06:49:57.430Z,37.04
2023-07-08T06:50:55.362Z,37.35
2023-07-08T06:51:55.372Z,37.25
2023-07-08T06:52:55.361Z,37.74
2023-07-08T06:53:55.349Z,37.05
2023-07-08T06:54:55.467Z,37.15
2023-07-08T06:55:55.346Z,37.07
2023-07-08T06:56:55.321Z,37.45
2023-07-08T06:57:55.341Z,37.23
2023-07-08T06:58:55.379Z,36.63
2023-07-08T06:59:55.311Z,36.53
2023-07-08T07:00:55.325Z,36.24
2023-07-08T07:01:55.348Z,35.94
2023-07-08T07:02:55.313Z,36.24
2023-07-08T07:03:55.379Z,37.25
2023-07-08T07:04:55.265Z,36.88
2023-07-08T07:05:55.293Z,36.60
2023-07-08T07:06:55.275Z,37.74
2023-07-08T07:07:55.254Z,38.44
2023-07-08T07:08:55.241Z,39.76
2023-07-08T07:09:55.222Z,40.27
2023-07-08T07:10:55.238Z,40.90
2023-07-08T07:11:55.217Z,41.41
2023-07-08T07:12:55.217Z,42.22
2023-07-08T07:13:55.270Z,42.82
2023-07-08T07:14:55.224Z,41.93
2023-07-08T07:15:55.314Z,42.22
2023-07-08T07:17:07.167Z,42.54
2023-07-08T07:17:57.172Z,44.06
2023-07-08T07:18:55.176Z,45.00
2023-07-08T07:19:55.210Z,45.41
2023-07-08T07:20:55.801Z,46.12
2023-07-08T07:21:55.157Z,46.94
2023-07-08T07:22:55.165Z,47.36
2023-07-08T07:23:55.128Z,47.53
2023-07-08T07:24:55.105Z,47.93
2023-07-08T07:25:55.115Z,47.74
2023-07-08T07:26:55.138Z,47.93
2023-07-08T07:27:55.137Z,47.71
2023-07-08T07:28:55.732Z,47.81
2023-07-08T07:29:55.084Z,46.67
2023-07-08T07:30:55.119Z,46.55
2023-07-08T07:31:55.110Z,46.14
2023-07-08T07:32:55.105Z,45.13
2023-07-08T07:33:55.044Z,45.20
2023-07-08T07:34:55.047Z,45.08
2023-07-08T07:35:55.099Z,43.59
2023-07-08T07:36:57.280Z,44.32
2023-07-08T07:37:55.070Z,44.91
2023-07-08T07:38:55.012Z,45.03
2023-07-08T07:39:55.013Z,45.62
2023-07-08T07:40:55.016Z,44.69
2023-07-08T07:41:54.992Z,43.86
2023-07-08T07:42:55.009Z,42.93
2023-07-08T07:43:54.979Z,42.02
2023-07-08T07:44:54.994Z,40.43
2023-07-08T07:45:54.978Z,40.41
2023-07-08T07:46:55.030Z,40.21
2023-07-08T07:47:54.989Z,40.58
2023-07-08T07:48:55.747Z,39.29
2023-07-08T07:49:54.986Z,39.29
2023-07-08T07:50:54.966Z,39.07
2023-07-08T07:51:54.986Z,39.27
2023-07-08T07:52:54.924Z,37.78
2023-07-08T07:53:54.896Z,39.07
2023-07-08T07:54:54.935Z,39.19
2023-07-08T07:55:54.915Z,39.60
2023-07-08T07:56:54.894Z,39.92
2023-07-08T07:57:54.886Z,39.84
2023-07-08T07:58:54.868Z,40.66
2023-07-08T07:59:54.864Z,41.16
2023-07-08T08:00:54.865Z,41.75
2023-07-08T08:01:54.861Z,41.65
2023-07-08T08:02:54.881Z,40.53
2023-07-08T08:03:54.942Z,40.78
2023-07-08T08:04:55.354Z,39.68
2023-07-08T08:05:54.814Z,39.47
2023-07-08T08:06:54.819Z,38.85
2023-07-08T08:07:54.857Z,38.37
2023-07-08T08:08:54.793Z,38.39
2023-07-08T08:09:54.778Z,38.90
2023-07-08T08:10:54.805Z,39.88
2023-07-08T08:11:54.791Z,39.39
2023-07-08T08:12:54.774Z,39.58
2023-07-08T08:13:54.845Z,39.98
2023-07-08T08:14:54.912Z,38.27
2023-07-08T08:15:55.335Z,37.96
2023-07-08T08:16:54.839Z,38.43
2023-07-08T08:17:55.420Z,37.94
2023-07-08T08:18:54.715Z,37.92
2023-07-08T08:19:54.779Z,37.31
2023-07-08T08:20:54.701Z,36.51
2023-07-08T08:21:54.736Z,35.42
2023-07-08T08:22:54.692Z,36.00
2023-07-08T08:23:54.705Z,36.18
2023-07-08T08:24:54.693Z,35.58
2023-07-08T08:25:54.684Z,35.17
2023-07-08T08:26:54.666Z,34.57
2023-07-08T08:27:54.671Z,34.08
2023-07-08T08:28:54.665Z,34.09
2023-07-08T08:29:54.637Z,34.97
2023-07-08T08:30:54.643Z,34.28
2023-07-08T08:31:54.609Z,32.60
2023-07-08T08:32:54.660Z,32.97
2023-07-08T08:33:54.640Z,32.48
2023-07-08T08:34:54.619Z,33.25
2023-07-08T08:35:54.584Z,32.67
2023-07-08T08:36:54.589Z,31.77
2023-07-08T08:37:54.891Z,32.63
2023-07-08T08:38:54.580Z,31.66
2023-07-08T08:39:54.559Z,31.96
2023-07-08T08:40:54.565Z,31.77
2023-07-08T08:41:54.576Z,31.77
2023-07-08T08:42:54.578Z,31.87
2023-07-08T08:43:55.617Z,32.35
2023-07-08T08:44:55.558Z,32.16
2023-07-08T08:45:54.538Z,32.63
2023-07-08T08:46:54.721Z,32.06
2023-07-08T08:47:54.527Z,31.67
2023-07-08T08:48:54.533Z,31.66
2023-07-08T08:49:55.270Z,31.56
2023-07-08T08:50:54.477Z,31.66
2023-07-08T08:51:54.476Z,31.96
2023-07-08T08:52:54.468Z,31.87
2023-07-08T08:53:54.456Z,31.80
2023-07-08T08:54:54.465Z,32.21
2023-07-08T08:55:54.455Z,33.43
2023-07-08T08:56:55.398Z,34.52
2023-07-08T08:57:54.446Z,35.14
2023-07-08T08:58:54.567Z,35.55
2023-07-08T08:59:54.410Z,35.55
2023-07-08T09:00:54.416Z,34.84
2023-07-08T09:01:54.418Z,34.26
2023-07-08T09:02:54.515Z,34.26
2023-07-08T09:03:54.451Z,34.65
2023-07-08T09:04:55.280Z,34.57
2023-07-08T09:05:54.390Z,34.16
2023-07-08T09:06:54.407Z,34.16
2023-07-08T09:07:54.348Z,34.08
2023-07-08T09:08:55.368Z,34.28
2023-07-08T09:09:54.353Z,34.98
2023-07-08T09:10:54.349Z,35.08
2023-07-08T09:11:54.349Z,35.58
2023-07-08T09:12:54.332Z,36.29
2023-07-08T09:13:54.421Z,36.32
2023-07-08T09:14:54.320Z,36.83
2023-07-08T09:15:54.348Z,37.72
2023-07-08T09:16:54.412Z,37.32
2023-07-08T09:17:54.326Z,37.32
2023-07-08T09:18:54.313Z,36.83
2023-07-08T09:19:54.279Z,37.11
2023-07-08T09:20:54.250Z,36.42
2023-07-08T09:21:54.322Z,36.42
2023-07-08T09:22:54.354Z,36.91
2023-07-08T09:23:54.258Z,37.58
2023-07-08T09:24:54.226Z,36.99
2023-07-08T09:25:54.835Z,36.60
2023-07-08T09:26:54.862Z,36.21
2023-07-08T09:27:54.219Z,36.01
2023-07-08T09:28:54.200Z,35.80
2023-07-08T09:29:54.215Z,35.99
2023-07-08T09:30:54.202Z,36.39
2023-07-08T09:31:54.274Z,36.58
2023-07-08T09:32:54.231Z,36.70
2023-07-08T09:33:54.173Z,36.82
2023-07-08T09:34:54.159Z,36.91
2023-07-08T09:35:54.143Z,36.70
2023-07-08T09:36:54.159Z,36.91
2023-07-08T09:37:54.204Z,36.32
2023-07-08T09:38:54.133Z,36.40
2023-07-08T09:39:54.128Z,36.21
2023-07-08T09:40:54.098Z,35.62
2023-07-08T09:41:54.109Z,35.60
2023-07-08T09:42:54.126Z,35.41
2023-07-08T09:43:54.114Z,34.72
2023-07-08T09:44:54.105Z,35.29
2023-07-08T09:45:54.079Z,34.78
2023-07-08T09:46:54.197Z,35.37
2023-07-08T09:47:54.165Z,35.17
2023-07-08T09:48:54.051Z,34.88
2023-07-08T09:49:54.114Z,34.01
2023-07-08T09:50:54.046Z,34.31
2023-07-08T09:51:54.043Z,34.51
2023-07-08T09:52:54.984Z,35.31
2023-07-08T09:53:54.001Z,34.81
2023-07-08T09:54:54.049Z,35.31
2023-07-08T09:55:53.998Z,36.21
2023-07-08T09:56:53.989Z,35.91
2023-07-08T09:57:53.979Z,35.83
2023-07-08T09:58:53.973Z,36.34
2023-07-08T09:59:53.968Z,36.24
2023-07-08T10:00:54.798Z,36.46
2023-07-08T10:01:54.037Z,36.38
2023-07-08T10:02:53.973Z,36.57
2023-07-08T10:03:54.812Z,36.99
2023-07-08T10:04:54.053Z,36.88
2023-07-08T10:05:53.928Z,37.85
2023-07-08T10:06:53.924Z,37.55
2023-07-08T10:07:53.916Z,37.46
2023-07-08T10:08:54.035Z,36.79
2023-07-08T10:09:53.895Z,36.99
2023-07-08T10:10:53.902Z,37.18
2023-07-08T10:11:53.916Z,36.69
2023-07-08T10:12:53.874Z,36.97
2023-07-08T10:14:11.688Z,36.99
2023-07-08T10:14:55.861Z,37.65
2023-07-08T10:15:53.919Z,37.36
2023-07-08T10:16:53.896Z,36.67
2023-07-08T10:17:53.900Z,36.77
2023-07-08T10:18:53.828Z,35.78
2023-07-08T10:19:53.840Z,36.67
2023-07-08T10:20:53.818Z,35.99
2023-07-08T10:21:53.816Z,35.99
2023-07-08T10:22:53.792Z,36.79
2023-07-08T10:23:53.781Z,37.18
2023-07-08T10:24:53.794Z,37.18
2023-07-08T10:25:53.777Z,35.61
2023-07-08T10:26:53.782Z,37.16
2023-07-08T10:27:53.757Z,37.46
2023-07-08T10:28:53.796Z,37.24
2023-07-08T10:29:53.809Z,36.85
2023-07-08T10:30:53.739Z,35.95
2023-07-08T10:31:53.828Z,35.75
2023-07-08T10:32:53.790Z,35.16
2023-07-08T10:33:53.745Z,34.87
2023-07-08T10:34:53.695Z,34.16
2023-07-08T10:35:53.696Z,33.97
2023-07-08T10:36:53.733Z,34.06
2023-07-08T10:37:53.690Z,34.06
2023-07-08T10:38:53.697Z,33.67
2023-07-08T10:39:53.681Z,34.26
2023-07-08T10:40:53.661Z,34.16
2023-07-08T10:41:53.698Z,34.15
2023-07-08T10:42:53.659Z,33.56
2023-07-08T10:43:53.658Z,33.56
2023-07-08T10:44:53.625Z,33.26
2023-07-08T10:45:53.645Z,33.17
2023-07-08T10:46:53.623Z,33.17
2023-07-08T10:47:53.657Z,32.87
2023-07-08T10:48:53.619Z,32.95
2023-07-08T10:49:53.583Z,32.66
2023-07-08T10:50:53.608Z,31.87
2023-07-08T10:51:53.587Z,33.15
2023-07-08T10:52:53.599Z,31.97
2023-07-08T10:53:55.826Z,32.86
2023-07-08T10:54:53.620Z,33.15
2023-07-08T10:55:53.584Z,33.34
2023-07-08T10:56:53.539Z,32.84
2023-07-08T10:57:53.547Z,32.54
2023-07-08T10:58:53.546Z,32.64
2023-07-08T10:59:53.510Z,31.57
2023-07-08T11:00:54.440Z,32.27
2023-07-08T11:01:53.646Z,32.17
2023-07-08T11:02:53.539Z,32.07
2023-07-08T11:03:53.559Z,31.68
2023-07-08T11:04:53.496Z,32.07
2023-07-08T11:05:53.472Z,32.95
2023-07-08T11:06:53.465Z,31.57
2023-07-08T11:07:53.484Z,31.47
2023-07-08T11:08:53.499Z,30.78
2023-07-08T11:09:53.451Z,30.68
2023-07-08T11:11:02.897Z,31.17
2023-07-08T11:11:55.446Z,31.67
2023-07-08T11:12:54.419Z,31.27
2023-07-08T11:13:53.444Z,30.88
2023-07-08T11:14:53.398Z,30.78
2023-07-08T11:15:53.448Z,31.17
2023-07-08T11:16:53.431Z,30.58
2023-07-08T11:17:53.457Z,29.80
2023-07-08T11:18:54.412Z,30.00
2023-07-08T11:19:53.374Z,30.01
2023-07-08T11:20:54.373Z,30.50
2023-07-08T11:21:53.359Z,29.83
2023-07-08T11:22:53.365Z,30.04
2023-07-08T11:23:53.332Z,31.51
2023-07-08T11:24:53.363Z,31.10
2023-07-08T11:25:53.314Z,31.10
2023-07-08T11:26:53.328Z,30.80
2023-07-08T11:27:53.342Z,30.19
2023-07-08T11:28:53.324Z,30.10
2023-07-08T11:29:53.303Z,30.08
2023-07-08T11:30:53.323Z,30.18
2023-07-08T11:31:53.433Z,29.18
2023-07-08T11:32:53.387Z,29.98
2023-07-08T11:33:53.326Z,29.20
2023-07-08T11:34:53.316Z,30.19
2023-07-08T11:35:53.331Z,30.58
2023-07-08T11:36:53.342Z,30.29
2023-07-08T11:37:53.241Z,30.08
2023-07-08T11:38:53.227Z,30.18
2023-07-08T11:39:53.242Z,29.88
2023-07-08T11:40:53.215Z,29.20
2023-07-08T11:41:53.250Z,29.48
2023-07-08T11:42:59.629Z,29.48
2023-07-08T11:43:55.215Z,29.39
2023-07-08T11:44:53.233Z,29.49
2023-07-08T11:45:53.201Z,29.88
2023-07-08T11:46:53.187Z,29.00
2023-07-08T11:47:53.303Z,29.39
2023-07-08T11:48:53.170Z,29.49
2023-07-08T11:49:53.166Z,29.02
2023-07-08T11:50:53.191Z,30.39
2023-07-08T11:51:53.158Z,29.30
2023-07-08T11:52:53.120Z,29.00
2023-07-08T11:53:53.128Z,29.50
2023-07-08T11:54:53.127Z,29.49
2023-07-08T11:55:53.128Z,29.38
2023-07-08T11:56:53.129Z,29.48
2023-07-08T11:57:53.124Z,28.69
2023-07-08T11:58:53.125Z,29.39
2023-07-08T11:59:53.097Z,28.69
2023-07-08T12:00:55.095Z,28.71
2023-07-08T12:01:54.089Z,28.89
2023-07-08T12:02:53.155Z,29.18
2023-07-08T12:03:53.168Z,28.40
2023-07-08T12:04:53.078Z,28.51
2023-07-08T12:05:53.076Z,28.12
2023-07-08T12:06:53.056Z,28.71
2023-07-08T12:07:53.060Z,28.41
2023-07-08T12:08:57.235Z,27.63
2023-07-08T12:09:55.957Z,28.31
2023-07-08T12:10:54.870Z,27.92
2023-07-08T12:11:52.996Z,27.92
2023-07-08T12:12:53.006Z,28.13
2023-07-08T12:13:53.030Z,28.15
2023-07-08T12:14:53.000Z,28.25
2023-07-08T12:15:53.019Z,28.74
2023-07-08T12:16:53.048Z,28.54
2023-07-08T12:17:53.063Z,28.74
2023-07-08T12:18:52.970Z,29.13
2023-07-08T12:19:52.961Z,28.44
2023-07-08T12:20:52.938Z,29.21
2023-07-08T12:21:52.936Z,29.31
2023-07-08T12:22:52.915Z,28.72
2023-07-08T12:23:52.895Z,28.61
2023-07-08T12:24:52.910Z,28.91
2023-07-08T12:25:52.941Z,28.50
2023-07-08T12:26:52.901Z,27.81
2023-07-08T12:27:52.865Z,28.68
2023-07-08T12:28:52.910Z,29.46
2023-07-08T12:29:52.893Z,28.97
2023-07-08T12:30:52.907Z,29.28
2023-07-08T12:31:53.370Z,30.15
2023-07-08T12:32:53.923Z,29.16
2023-07-08T12:33:53.393Z,29.45
2023-07-08T12:34:53.456Z,29.35
2023-07-08T12:35:52.842Z,29.44
2023-07-08T12:36:52.831Z,28.45
2023-07-08T12:37:52.833Z,29.34
2023-07-08T12:38:52.855Z,28.86
2023-07-08T12:39:52.787Z,29.24
2023-07-08T12:40:52.776Z,28.57
2023-07-08T12:41:52.781Z,28.55
2023-07-08T12:42:52.757Z,28.65
2023-07-08T12:43:52.773Z,29.13
2023-07-08T12:44:52.747Z,28.63
2023-07-08T12:45:53.456Z,28.72
2023-07-08T12:46:52.769Z,28.81
2023-07-08T12:47:54.375Z,27.93
2023-07-08T12:48:52.745Z,27.15
2023-07-08T12:49:52.731Z,27.36
2023-07-08T12:50:52.737Z,27.36
2023-07-08T12:51:52.707Z,29.02
2023-07-08T12:52:52.678Z,29.13
2023-07-08T12:53:52.674Z,28.44
2023-07-08T12:54:52.683Z,28.15